Hovedside
METAR-TAF:

METAR-TAF

Lufthavner :

Hasvik, Norge

Hasvik lufthavn

breddegrad: 70-29N, lengdegrad: 022-09E, høyde over havet: 10 m

Gjeldene værobservasjon

Denne rapporten ble laget for 6 timer og 59 minutter siden, klokken 13:50 UTC
Vind 35 kt fra Nordvest med vindkast opp mot 45 kt
Temperatur 3°C
Luftfuktighet 81%
Trykk 984 hPa
Sikt 10 km eller mer
Få skyer i en høyde av 1000 ft
Spredte skyer i en høyde av 1600 ft
Brutte skyer i en høyde av 2300 ft, Tårnskyer (cumulus).
Brutte skyer i en høyde av 4400 ft
regnbyger i nærheten

METAR: ENHK 261350Z 32035G45KT 9999 VCSH FEW010 SCT016 BKN023TCU BKN044 03/00 Q0984

Tid: 22:49 (20:49 UTC)


TAF: fraværende

Værobservasjoner og værvarsel for over 4000 flyplasser (METAR- og TAF-rapporter).

Tilgjengelige stasjoner er representert av de røde og gule prikkene på kartet.

Hold musepekeren over prikken for å se navnet på stasjonen.

Klikk så for å se værobservasjoner og -varsler.

For å forandre kartet kan du klikke på den grønne knappen med svart kryss for å zoome inn, på den grønne knappen med strek for å zoome ut, eller på de grønne pilene for å se tilstøtende kart.


METAR-TAF: